createdAt,value
2023-06-29T00:01:57.582Z,85.07
2023-06-29T00:04:26.810Z,85.27
2023-06-29T00:06:56.365Z,85.06
2023-06-29T00:09:23.679Z,85.27
2023-06-29T00:11:50.879Z,85.09
2023-06-29T00:14:17.596Z,85.51
2023-06-29T00:16:44.449Z,86.02
2023-06-29T00:19:12.871Z,85.68
2023-06-29T00:21:40.069Z,86.26
2023-06-29T00:24:06.960Z,85.96
2023-06-29T00:26:33.589Z,86.31
2023-06-29T00:29:00.032Z,86.75
2023-06-29T00:31:27.727Z,87.42
2023-06-29T00:33:54.441Z,87.28
2023-06-29T00:36:20.968Z,86.71
2023-06-29T00:38:47.635Z,86.31
2023-06-29T00:41:16.348Z,86.76
2023-06-29T00:43:46.587Z,87.33
2023-06-29T00:46:17.835Z,87.21
2023-06-29T00:48:44.427Z,87.71
2023-06-29T00:51:12.486Z,87.21
2023-06-29T00:53:38.997Z,87.27
2023-06-29T00:56:05.779Z,87.56
2023-06-29T00:58:32.348Z,86.59
2023-06-29T01:00:59.069Z,87.17
2023-06-29T01:03:26.484Z,86.70
2023-06-29T01:05:57.311Z,86.71
2023-06-29T01:08:34.147Z,87.07
2023-06-29T01:11:04.419Z,87.50
2023-06-29T01:13:32.267Z,87.28
2023-06-29T01:16:00.817Z,87.68
2023-06-29T01:18:31.519Z,87.66
2023-06-29T01:21:00.293Z,89.10
2023-06-29T01:23:31.145Z,89.74
2023-06-29T01:25:58.530Z,90.10
2023-06-29T01:28:26.875Z,90.09
2023-06-29T01:30:53.416Z,89.80
2023-06-29T01:33:24.685Z,89.39
2023-06-29T01:36:01.214Z,89.07
2023-06-29T01:38:37.485Z,89.51
2023-06-29T01:41:07.307Z,89.70
2023-06-29T01:43:36.002Z,89.53
2023-06-29T01:46:03.924Z,88.39
2023-06-29T01:48:31.291Z,90.18
2023-06-29T01:50:58.120Z,90.00
2023-06-29T01:53:24.665Z,90.00
2023-06-29T01:55:51.137Z,90.58
2023-06-29T01:58:17.597Z,90.33
2023-06-29T02:00:44.160Z,90.01
2023-06-29T02:03:10.780Z,89.25
2023-06-29T02:05:37.407Z,89.24
2023-06-29T02:08:04.181Z,89.91
2023-06-29T02:10:30.789Z,90.96
2023-06-29T02:12:57.236Z,91.34
2023-06-29T02:15:23.750Z,91.64
2023-06-29T02:17:50.265Z,92.06
2023-06-29T02:20:18.461Z,92.89
2023-06-29T02:22:45.002Z,93.13
2023-06-29T02:25:14.342Z,93.23
2023-06-29T02:27:40.910Z,92.58
2023-06-29T02:30:08.006Z,91.91
2023-06-29T02:32:35.279Z,92.74
2023-06-29T02:35:02.028Z,92.76
2023-06-29T02:37:28.716Z,92.23
2023-06-29T02:39:55.249Z,92.76
2023-06-29T02:42:23.335Z,92.41
2023-06-29T02:44:49.819Z,93.55
2023-06-29T02:47:16.352Z,93.68
2023-06-29T02:49:42.897Z,93.44
2023-06-29T02:52:12.075Z,93.30
2023-06-29T02:54:38.658Z,94.33
2023-06-29T02:57:05.452Z,94.61
2023-06-29T02:59:32.086Z,95.25
2023-06-29T03:01:58.571Z,95.16
2023-06-29T03:04:25.060Z,94.25
2023-06-29T03:06:54.155Z,94.62
2023-06-29T03:09:20.716Z,94.84
2023-06-29T03:11:47.172Z,94.86
2023-06-29T03:14:13.719Z,94.58
2023-06-29T03:16:40.449Z,94.13
2023-06-29T03:19:06.962Z,93.18
2023-06-29T03:21:33.475Z,93.18
2023-06-29T03:23:59.941Z,93.88
2023-06-29T03:26:26.478Z,93.69
2023-06-29T03:28:52.981Z,93.88
2023-06-29T03:31:19.652Z,93.71
2023-06-29T03:33:46.305Z,93.45
2023-06-29T03:36:13.710Z,93.34
2023-06-29T03:38:40.264Z,92.73
2023-06-29T03:41:06.890Z,92.65
2023-06-29T03:43:33.658Z,92.31
2023-06-29T03:46:00.537Z,92.12
2023-06-29T03:48:30.074Z,91.85
2023-06-29T03:50:58.188Z,91.83
2023-06-29T03:53:25.019Z,91.10
2023-06-29T03:55:51.617Z,91.87
2023-06-29T03:58:18.181Z,92.00
2023-06-29T04:00:45.343Z,91.77
2023-06-29T04:03:12.434Z,91.91
2023-06-29T04:05:39.089Z,91.41
2023-06-29T04:08:06.192Z,91.46
2023-06-29T04:10:34.055Z,91.34
2023-06-29T04:13:01.011Z,91.78
2023-06-29T04:15:27.579Z,91.36
2023-06-29T04:17:54.410Z,91.44
2023-06-29T04:20:20.977Z,91.44
2023-06-29T04:22:47.572Z,91.90
2023-06-29T04:25:14.167Z,91.24
2023-06-29T04:27:42.832Z,91.21
2023-06-29T04:30:10.099Z,91.11
2023-06-29T04:32:36.599Z,91.12
2023-06-29T04:35:03.219Z,91.59
2023-06-29T04:37:37.701Z,90.71
2023-06-29T04:40:08.205Z,89.92
2023-06-29T04:42:34.934Z,89.79
2023-06-29T04:45:02.013Z,90.38
2023-06-29T04:47:33.294Z,89.79
2023-06-29T04:49:59.963Z,89.51
2023-06-29T04:52:27.763Z,88.96
2023-06-29T04:54:54.272Z,89.51
2023-06-29T04:57:20.763Z,89.02
2023-06-29T04:59:47.283Z,88.63
2023-06-29T05:02:13.763Z,88.40
2023-06-29T05:04:40.283Z,87.17
2023-06-29T05:07:06.839Z,86.97
2023-06-29T05:09:33.311Z,86.73
2023-06-29T05:11:59.822Z,86.79
2023-06-29T05:14:27.633Z,85.80
2023-06-29T05:16:54.416Z,85.62
2023-06-29T05:19:20.940Z,85.13
2023-06-29T05:21:47.461Z,84.61
2023-06-29T05:24:14.009Z,84.40
2023-06-29T05:26:40.536Z,83.87
2023-06-29T05:29:06.997Z,83.17
2023-06-29T05:31:33.634Z,83.48
2023-06-29T05:34:00.337Z,83.23
2023-06-29T05:36:27.767Z,82.09
2023-06-29T05:38:54.499Z,81.42
2023-06-29T05:41:21.023Z,80.81
2023-06-29T05:43:47.540Z,80.30
2023-06-29T05:46:14.105Z,79.98
2023-06-29T05:48:40.648Z,79.53
2023-06-29T05:51:07.178Z,78.30
2023-06-29T05:53:33.868Z,76.88
2023-06-29T05:56:00.534Z,75.17
2023-06-29T05:58:27.057Z,74.86
2023-06-29T06:00:53.609Z,73.70
2023-06-29T06:03:21.675Z,71.94
2023-06-29T06:05:48.300Z,71.20
2023-06-29T06:08:15.826Z,69.80
2023-06-29T06:10:43.007Z,68.91
2023-06-29T06:13:10.397Z,67.32
2023-06-29T06:15:36.950Z,68.16
2023-06-29T06:18:03.686Z,66.46
2023-06-29T06:20:30.399Z,65.04
2023-06-29T06:22:56.923Z,64.27
2023-06-29T06:25:23.480Z,62.05
2023-06-29T06:27:50.008Z,62.15
2023-06-29T06:30:16.664Z,60.84
2023-06-29T06:32:43.312Z,61.54
2023-06-29T06:35:10.308Z,60.21
2023-06-29T06:37:37.473Z,60.09
2023-06-29T06:40:08.656Z,59.19
2023-06-29T06:42:44.699Z,58.71
2023-06-29T06:45:11.843Z,58.51
2023-06-29T06:47:38.527Z,58.41
2023-06-29T06:50:05.625Z,57.96
2023-06-29T06:52:32.224Z,56.35
2023-06-29T06:54:59.160Z,56.00
2023-06-29T06:57:26.221Z,54.90
2023-06-29T06:59:52.734Z,54.59
2023-06-29T07:02:19.407Z,53.53
2023-06-29T07:04:46.163Z,53.12
2023-06-29T07:07:12.783Z,51.21
2023-06-29T07:09:40.064Z,50.15
2023-06-29T07:12:07.263Z,50.69
2023-06-29T07:14:33.864Z,49.80
2023-06-29T07:17:00.693Z,49.71
2023-06-29T07:24:26.593Z,48.10
2023-06-29T07:26:53.119Z,47.37
2023-06-29T07:29:19.572Z,46.19
2023-06-29T07:31:47.265Z,45.98
2023-06-29T07:34:14.024Z,46.76
2023-06-29T07:36:40.609Z,47.41
2023-06-29T07:39:07.205Z,46.94
2023-06-29T07:41:33.802Z,47.31
2023-06-29T07:44:01.101Z,47.07
2023-06-29T07:46:27.614Z,47.18
2023-06-29T07:48:55.767Z,46.92
2023-06-29T07:51:22.791Z,47.33
2023-06-29T07:53:49.452Z,46.38
2023-06-29T07:56:16.028Z,45.83
2023-06-29T07:58:42.716Z,45.47
2023-06-29T08:01:09.403Z,45.57
2023-06-29T08:03:50.978Z,44.60
2023-06-29T08:08:52.501Z,43.37
2023-06-29T08:11:19.235Z,42.49
2023-06-29T08:13:45.735Z,43.73
2023-06-29T08:16:12.335Z,42.89
2023-06-29T08:18:38.864Z,43.66
2023-06-29T08:21:05.368Z,43.72
2023-06-29T08:23:35.263Z,42.83
2023-06-29T08:26:01.930Z,42.46
2023-06-29T08:28:28.406Z,42.23
2023-06-29T08:30:54.961Z,40.96
2023-06-29T08:33:24.739Z,41.12
2023-06-29T08:35:52.534Z,40.57
2023-06-29T08:38:19.159Z,40.31
2023-06-29T08:40:48.921Z,39.65
2023-06-29T08:43:19.453Z,41.23
2023-06-29T08:45:46.930Z,39.09
2023-06-29T08:48:15.205Z,39.73
2023-06-29T08:50:46.666Z,38.57
2023-06-29T08:53:14.442Z,38.29
2023-06-29T08:55:42.988Z,39.50
2023-06-29T08:58:09.713Z,38.54
2023-06-29T09:00:37.098Z,39.87
2023-06-29T09:03:05.020Z,39.87
2023-06-29T09:05:31.581Z,39.04
2023-06-29T09:07:58.285Z,40.55
2023-06-29T09:10:24.886Z,40.06
2023-06-29T09:12:53.732Z,39.95
2023-06-29T09:15:21.652Z,41.08
2023-06-29T09:17:55.372Z,40.79
2023-06-29T09:20:45.832Z,41.56
2023-06-29T09:23:14.051Z,39.84
2023-06-29T09:25:40.766Z,39.62
2023-06-29T09:28:08.587Z,39.77
2023-06-29T09:30:39.037Z,38.66
2023-06-29T09:33:11.371Z,39.65
2023-06-29T09:35:40.626Z,38.25
2023-06-29T09:38:07.675Z,38.37
2023-06-29T09:40:53.275Z,38.83
2023-06-29T09:43:21.832Z,40.04
2023-06-29T09:45:48.481Z,39.74
2023-06-29T09:50:54.770Z,39.12
2023-06-29T09:53:32.543Z,38.79
2023-06-29T09:56:00.812Z,38.63
2023-06-29T09:58:29.320Z,39.99
2023-06-29T10:00:59.496Z,39.14
2023-06-29T10:03:32.538Z,38.54
2023-06-29T10:06:04.408Z,38.30
2023-06-29T10:08:34.015Z,37.85
2023-06-29T10:11:03.927Z,37.74
2023-06-29T10:13:37.708Z,37.49
2023-06-29T10:16:10.091Z,37.83
2023-06-29T10:18:42.189Z,38.06
2023-06-29T10:21:08.973Z,38.35
2023-06-29T10:23:36.175Z,38.03
2023-06-29T10:26:04.983Z,38.53
2023-06-29T10:28:31.675Z,38.37
2023-06-29T10:31:00.546Z,38.72
2023-06-29T10:33:27.826Z,38.69
2023-06-29T10:35:59.182Z,37.59
2023-06-29T10:38:33.651Z,37.11
2023-06-29T10:41:00.564Z,36.77
2023-06-29T10:43:28.572Z,37.59
2023-06-29T10:45:55.408Z,37.81
2023-06-29T10:48:38.420Z,36.94
2023-06-29T10:51:09.790Z,36.31
2023-06-29T10:53:36.506Z,36.55
2023-06-29T10:56:03.086Z,36.45
2023-06-29T10:58:38.979Z,36.69
2023-06-29T11:01:05.547Z,35.79
2023-06-29T11:03:32.756Z,36.17
2023-06-29T11:06:02.963Z,35.83
2023-06-29T11:08:31.818Z,35.31
2023-06-29T11:11:14.337Z,35.50
2023-06-29T11:13:40.910Z,35.89
2023-06-29T11:16:07.564Z,35.22
2023-06-29T11:18:34.050Z,34.42
2023-06-29T11:21:01.386Z,33.87
2023-06-29T11:23:27.949Z,34.70
2023-06-29T11:25:54.454Z,35.50
2023-06-29T11:28:21.236Z,36.09
2023-06-29T11:33:35.334Z,37.36
2023-06-29T11:36:02.347Z,37.70
2023-06-29T11:38:29.207Z,38.22
2023-06-29T11:41:06.052Z,38.76
2023-06-29T11:43:33.159Z,38.30
2023-06-29T11:46:00.118Z,39.49
2023-06-29T11:48:30.564Z,41.10
2023-06-29T11:51:00.429Z,41.03
2023-06-29T11:53:27.105Z,41.37
2023-06-29T11:55:54.819Z,42.42
2023-06-29T11:58:21.461Z,43.41
2023-06-29T12:00:56.694Z,45.48
2023-06-29T12:03:24.379Z,45.74
2023-06-29T12:05:52.037Z,46.40
2023-06-29T12:08:21.554Z,43.92
2023-06-29T12:10:48.338Z,43.37
2023-06-29T12:13:14.852Z,43.49
2023-06-29T12:17:59.175Z,42.73
2023-06-29T12:18:32.517Z,42.64
2023-06-29T12:21:02.381Z,42.24
2023-06-29T12:23:29.034Z,41.39
2023-06-29T12:25:55.908Z,40.71
2023-06-29T12:28:23.024Z,40.43
2023-06-29T12:30:49.628Z,40.17
2023-06-29T12:33:16.192Z,39.62
2023-06-29T12:35:45.520Z,39.75
2023-06-29T12:38:12.477Z,39.47
2023-06-29T12:40:39.277Z,39.94
2023-06-29T12:43:06.053Z,39.96
2023-06-29T12:45:32.734Z,40.13
2023-06-29T12:47:59.238Z,40.27
2023-06-29T12:50:25.826Z,40.19
2023-06-29T12:52:52.695Z,39.97
2023-06-29T12:55:19.245Z,40.21
2023-06-29T12:57:46.037Z,39.84
2023-06-29T13:00:13.591Z,39.21
2023-06-29T13:02:40.716Z,40.15
2023-06-29T13:05:07.816Z,39.89
2023-06-29T13:07:35.818Z,39.27
2023-06-29T13:10:04.350Z,39.50
2023-06-29T13:12:31.498Z,39.02
2023-06-29T13:14:59.077Z,39.36
2023-06-29T13:17:26.041Z,39.09
2023-06-29T13:19:52.601Z,38.45
2023-06-29T13:22:19.541Z,39.08
2023-06-29T13:24:48.075Z,38.82
2023-06-29T13:27:14.781Z,38.77
2023-06-29T13:29:41.880Z,39.10
2023-06-29T13:32:08.990Z,39.59
2023-06-29T13:34:35.630Z,39.45
2023-06-29T13:37:02.683Z,39.46
2023-06-29T13:39:29.728Z,38.45
2023-06-29T13:41:56.470Z,37.65
2023-06-29T13:44:23.072Z,37.60
2023-06-29T13:46:49.669Z,38.06
2023-06-29T13:49:16.764Z,38.21
2023-06-29T13:51:43.721Z,39.79
2023-06-29T13:54:10.357Z,38.98
2023-06-29T13:56:38.956Z,39.21
2023-06-29T13:59:10.605Z,39.36
2023-06-29T14:01:38.752Z,39.17
2023-06-29T14:04:06.832Z,37.83
2023-06-29T14:06:39.172Z,37.77
2023-06-29T14:09:07.145Z,37.87
2023-06-29T14:11:34.037Z,38.10
2023-06-29T14:14:00.748Z,39.53
2023-06-29T14:16:28.952Z,38.99
2023-06-29T14:18:55.624Z,40.77
2023-06-29T14:21:22.679Z,40.75
2023-06-29T14:23:49.378Z,41.01
2023-06-29T14:26:16.755Z,40.40
2023-06-29T14:28:43.951Z,40.80
2023-06-29T14:31:10.737Z,40.37
2023-06-29T14:33:37.571Z,40.52
2023-06-29T14:36:06.161Z,40.71
2023-06-29T14:38:32.890Z,40.65
2023-06-29T14:41:03.053Z,40.14
2023-06-29T14:43:30.448Z,39.25
2023-06-29T14:45:57.552Z,39.13
2023-06-29T14:48:24.915Z,38.94
2023-06-29T14:50:52.852Z,38.62
2023-06-29T14:53:23.531Z,38.03
2023-06-29T14:55:50.611Z,38.98
2023-06-29T14:58:17.818Z,38.05
2023-06-29T15:00:44.533Z,36.84
2023-06-29T15:03:11.253Z,37.90
2023-06-29T15:05:37.943Z,38.28
2023-06-29T15:08:04.704Z,37.34
2023-06-29T15:10:31.334Z,37.53
2023-06-29T15:12:57.853Z,37.68
2023-06-29T15:15:24.480Z,39.39
2023-06-29T15:17:51.396Z,39.65
2023-06-29T15:20:19.070Z,39.54
2023-06-29T15:22:46.114Z,39.90
2023-06-29T15:25:12.891Z,40.02
2023-06-29T15:27:39.922Z,40.76
2023-06-29T15:30:06.901Z,40.97
2023-06-29T15:32:33.656Z,41.69
2023-06-29T15:35:02.215Z,41.33
2023-06-29T15:37:28.752Z,41.95
2023-06-29T15:39:55.361Z,41.88
2023-06-29T15:42:22.103Z,42.13
2023-06-29T15:44:48.668Z,41.32
2023-06-29T15:47:15.180Z,41.07
2023-06-29T15:49:42.014Z,41.95
2023-06-29T15:52:09.270Z,42.44
2023-06-29T15:54:35.938Z,42.39
2023-06-29T15:57:02.478Z,43.07
2023-06-29T15:59:28.930Z,43.61
2023-06-29T16:01:55.488Z,43.61
2023-06-29T16:04:23.451Z,43.58
2023-06-29T16:06:50.114Z,44.29
2023-06-29T16:09:16.888Z,44.87
2023-06-29T16:11:43.397Z,44.14
2023-06-29T16:14:10.009Z,44.71
2023-06-29T16:16:36.742Z,43.48
2023-06-29T16:19:03.438Z,43.71
2023-06-29T16:21:29.957Z,43.36
2023-06-29T16:23:56.527Z,43.36
2023-06-29T16:26:23.120Z,44.11
2023-06-29T16:28:49.778Z,43.72
2023-06-29T16:31:16.417Z,43.82
2023-06-29T16:33:42.999Z,42.55
2023-06-29T16:36:09.574Z,42.84
2023-06-29T16:38:36.105Z,41.75
2023-06-29T16:41:02.642Z,41.25
2023-06-29T16:43:29.101Z,42.06
2023-06-29T16:45:56.729Z,41.78
2023-06-29T16:48:23.211Z,42.59
2023-06-29T16:50:49.742Z,43.25
2023-06-29T16:53:16.385Z,40.79
2023-06-29T16:55:43.124Z,40.18
2023-06-29T16:58:09.813Z,40.24
2023-06-29T17:00:36.283Z,39.97
2023-06-29T17:03:02.890Z,39.54
2023-06-29T17:05:30.637Z,39.63
2023-06-29T17:07:57.441Z,39.48
2023-06-29T17:10:24.066Z,40.36
2023-06-29T17:12:52.102Z,40.72
2023-06-29T17:15:19.426Z,41.32
2023-06-29T17:17:46.713Z,41.45
2023-06-29T17:20:13.522Z,41.35
2023-06-29T17:22:40.280Z,41.56
2023-06-29T17:25:08.423Z,41.90
2023-06-29T17:27:34.967Z,42.12
2023-06-29T17:30:01.557Z,41.44
2023-06-29T17:32:28.197Z,41.40
2023-06-29T17:34:54.731Z,41.98
2023-06-29T17:37:21.212Z,42.91
2023-06-29T17:39:47.734Z,43.00
2023-06-29T17:42:21.605Z,43.34
2023-06-29T17:44:49.322Z,43.64
2023-06-29T17:47:16.003Z,43.35
2023-06-29T17:49:43.546Z,43.46
2023-06-29T17:52:10.559Z,44.01
2023-06-29T17:54:37.132Z,43.79
2023-06-29T17:57:04.800Z,43.59
2023-06-29T17:59:31.270Z,43.89
2023-06-29T18:01:57.850Z,44.56
2023-06-29T18:04:24.616Z,43.58
2023-06-29T18:06:51.473Z,43.74
2023-06-29T18:09:17.992Z,43.72
2023-06-29T18:11:44.501Z,44.08
2023-06-29T18:14:10.986Z,43.98
2023-06-29T18:16:37.581Z,44.77
2023-06-29T18:19:04.135Z,44.78
2023-06-29T18:21:30.601Z,45.15
2023-06-29T18:23:57.157Z,44.19
2023-06-29T18:26:23.790Z,44.40
2023-06-29T18:28:50.332Z,44.78
2023-06-29T18:31:16.993Z,45.90
2023-06-29T18:33:43.572Z,46.02
2023-06-29T18:36:10.233Z,46.51
2023-06-29T18:38:36.862Z,45.06
2023-06-29T18:41:03.475Z,46.10
2023-06-29T18:43:30.004Z,45.77
2023-06-29T18:45:56.502Z,45.55
2023-06-29T18:48:23.071Z,46.14
2023-06-29T18:50:49.541Z,45.48
2023-06-29T18:53:16.087Z,46.12
2023-06-29T18:55:42.570Z,47.37
2023-06-29T18:58:09.090Z,49.84
2023-06-29T19:00:36.795Z,53.45
2023-06-29T19:03:03.504Z,54.92
2023-06-29T19:05:30.813Z,56.87
2023-06-29T19:07:57.370Z,56.57
2023-06-29T19:10:23.930Z,58.20
2023-06-29T19:12:50.513Z,59.67
2023-06-29T19:15:16.973Z,57.30
2023-06-29T19:17:43.523Z,57.47
2023-06-29T19:20:10.850Z,57.14
2023-06-29T19:22:37.379Z,58.82
2023-06-29T19:25:04.234Z,60.53
2023-06-29T19:27:30.755Z,60.28
2023-06-29T19:29:57.230Z,60.97
2023-06-29T19:32:23.721Z,59.35
2023-06-29T19:34:51.447Z,60.22
2023-06-29T19:37:18.280Z,59.39
2023-06-29T19:39:44.897Z,59.59
2023-06-29T19:42:11.396Z,59.02
2023-06-29T19:44:37.838Z,60.38
2023-06-29T19:47:04.525Z,60.87
2023-06-29T19:49:31.026Z,59.85
2023-06-29T19:51:58.967Z,60.71
2023-06-29T19:54:25.832Z,61.11
2023-06-29T19:56:52.426Z,61.49
2023-06-29T19:59:19.041Z,60.55
2023-06-29T20:01:45.578Z,62.54
2023-06-29T20:04:12.230Z,64.55
2023-06-29T20:06:38.854Z,64.94
2023-06-29T20:09:05.514Z,63.07
2023-06-29T20:11:32.088Z,63.15
2023-06-29T20:13:58.657Z,62.71
2023-06-29T20:16:25.210Z,63.31
2023-06-29T20:18:52.445Z,62.38
2023-06-29T20:21:19.052Z,62.74
2023-06-29T20:23:51.194Z,63.58
2023-06-29T20:26:18.701Z,63.71
2023-06-29T20:28:45.505Z,63.86
2023-06-29T20:31:12.133Z,64.63
2023-06-29T20:33:38.697Z,65.72
2023-06-29T20:36:05.308Z,67.29
2023-06-29T20:38:31.841Z,66.13
2023-06-29T20:40:58.381Z,65.76
2023-06-29T20:43:24.888Z,65.56
2023-06-29T20:45:52.307Z,65.75
2023-06-29T20:48:19.077Z,66.92
2023-06-29T20:50:45.555Z,66.71
2023-06-29T20:53:12.077Z,66.52
2023-06-29T20:55:38.654Z,66.32
2023-06-29T20:58:05.360Z,65.98
2023-06-29T21:00:33.807Z,66.77
2023-06-29T21:03:00.280Z,68.63
2023-06-29T21:05:27.443Z,69.39
2023-06-29T21:07:54.273Z,70.64
2023-06-29T21:10:21.049Z,72.22
2023-06-29T21:12:49.408Z,71.69
2023-06-29T21:15:16.096Z,71.75
2023-06-29T21:17:42.703Z,70.61
2023-06-29T21:20:09.770Z,70.02
2023-06-29T21:22:36.830Z,70.14
2023-06-29T21:25:03.900Z,70.54
2023-06-29T21:27:31.752Z,70.46
2023-06-29T21:29:58.598Z,70.55
2023-06-29T21:32:25.340Z,69.50
2023-06-29T21:34:52.169Z,70.30
2023-06-29T21:37:20.895Z,72.51
2023-06-29T21:39:47.380Z,72.74
2023-06-29T21:42:14.184Z,71.83
2023-06-29T21:44:40.663Z,71.85
2023-06-29T21:47:07.412Z,71.80
2023-06-29T21:49:34.247Z,73.59
2023-06-29T21:52:00.772Z,74.57
2023-06-29T21:54:27.271Z,74.13
2023-06-29T21:56:53.810Z,74.01
2023-06-29T21:59:20.339Z,72.41
2023-06-29T22:01:47.022Z,71.86
2023-06-29T22:04:13.694Z,71.54
2023-06-29T22:06:41.076Z,71.72
2023-06-29T22:09:07.808Z,71.13
2023-06-29T22:11:34.384Z,71.03
2023-06-29T22:14:01.114Z,72.64
2023-06-29T22:16:29.720Z,73.89
2023-06-29T22:18:56.793Z,75.42
2023-06-29T22:21:25.135Z,75.66
2023-06-29T22:23:53.029Z,74.65
2023-06-29T22:26:20.193Z,74.81
2023-06-29T22:28:46.816Z,73.88
2023-06-29T22:31:17.947Z,75.06
2023-06-29T22:33:45.398Z,74.49
2023-06-29T22:36:12.260Z,74.27
2023-06-29T22:38:38.765Z,74.16
2023-06-29T22:41:08.235Z,74.70
2023-06-29T22:43:34.860Z,74.81
2023-06-29T22:46:01.552Z,74.74
2023-06-29T22:48:28.120Z,73.74
2023-06-29T22:50:58.245Z,74.40
2023-06-29T22:53:24.980Z,74.36
2023-06-29T22:55:51.590Z,73.96
2023-06-29T22:58:24.831Z,74.10
2023-06-29T23:00:53.159Z,76.13
2023-06-29T23:03:20.835Z,76.31
2023-06-29T23:05:48.339Z,75.67
2023-06-29T23:08:16.459Z,76.11
2023-06-29T23:10:43.187Z,76.08
2023-06-29T23:13:17.115Z,75.90
2023-06-29T23:15:45.125Z,76.76
2023-06-29T23:18:12.702Z,76.44
2023-06-29T23:20:44.496Z,75.73
2023-06-29T23:23:13.767Z,75.69
2023-06-29T23:25:42.446Z,76.15
2023-06-29T23:28:09.064Z,76.44
2023-06-29T23:30:36.490Z,75.53
2023-06-29T23:33:03.265Z,74.52
2023-06-29T23:35:29.769Z,75.69
2023-06-29T23:37:56.210Z,75.91
2023-06-29T23:40:22.796Z,75.66
2023-06-29T23:42:50.979Z,75.59
2023-06-29T23:45:17.518Z,76.56
2023-06-29T23:47:44.269Z,76.55
2023-06-29T23:50:14.337Z,76.73
2023-06-29T23:52:41.932Z,76.57
2023-06-29T23:55:10.234Z,77.64
2023-06-29T23:57:36.877Z,78.17
